Time;durP1;ratioP1;P1;durP2;ratioP2;P2;SDS_P1;SDS_P2;PMS_P1;PMS_P2;Temp;Humidity;BMP_temperature;BMP_pressure;BME280_temperature;BME280_humidity;BME280_pressure;Samples;Min_cycle;Max_cycle;Signal;HPM_P1;HPM_P2
2023/12/27 00:00:30;;;;;;;5.90;1.30;;;3.60;99.90;;;;;;5043969;28;20048;-66
2023/12/27 00:02:57;;;;;;;16.00;2.25;;;3.70;99.90;;;;;;5028686;28;20124;-66
2023/12/27 00:05:23;;;;;;;12.90;2.30;;;3.60;99.90;;;;;;5030177;28;20052;-66
2023/12/27 00:07:49;;;;;;;7.07;1.80;;;3.60;99.90;;;;;;5044544;28;20047;-66
2023/12/27 00:10:14;;;;;;;10.30;1.92;;;3.60;99.90;;;;;;5040692;28;20081;-66
2023/12/27 00:12:40;;;;;;;16.83;3.22;;;3.60;99.90;;;;;;5042687;28;20046;-66
2023/12/27 00:15:06;;;;;;;10.93;1.73;;;3.60;99.90;;;;;;5034618;28;20079;-66
2023/12/27 00:17:32;;;;;;;16.48;1.92;;;3.50;99.90;;;;;;5039269;28;20044;-66
2023/12/27 00:19:58;;;;;;;11.75;1.45;;;3.50;99.90;;;;;;5020306;28;20040;-66
2023/12/27 00:22:24;;;;;;;9.10;2.10;;;3.50;99.90;;;;;;5038451;28;20044;-66
2023/12/27 00:24:49;;;;;;;8.60;1.55;;;3.50;99.90;;;;;;5031457;28;20144;-66
2023/12/27 00:27:17;;;;;;;13.75;2.00;;;3.40;99.90;;;;;;5025739;28;20048;-66
2023/12/27 00:29:42;;;;;;;8.25;1.73;;;3.40;99.90;;;;;;5020435;28;20095;-66
2023/12/27 00:32:08;;;;;;;9.35;1.63;;;3.40;99.90;;;;;;5031991;28;20542;-66
2023/12/27 00:34:37;;;;;;;15.73;1.63;;;3.40;99.90;;;;;;5043989;28;20055;-66
2023/12/27 00:37:03;;;;;;;12.82;1.75;;;3.30;99.90;;;;;;5036432;28;20049;-66
2023/12/27 00:39:29;;;;;;;7.13;1.27;;;3.20;99.90;;;;;;5030397;28;20088;-66
2023/12/27 00:41:55;;;;;;;13.57;1.63;;;3.20;99.90;;;;;;5031941;28;20052;-66
2023/12/27 00:44:20;;;;;;;7.72;1.15;;;3.10;99.90;;;;;;5043829;28;20136;-66
2023/12/27 00:46:46;;;;;;;16.73;2.15;;;3.00;99.90;;;;;;5030204;28;20481;-66
2023/12/27 00:49:12;;;;;;;7.63;1.42;;;2.90;99.90;;;;;;5041034;28;20562;-66
2023/12/27 00:51:38;;;;;;;12.25;1.83;;;2.80;99.90;;;;;;5031003;28;20063;-66
2023/12/27 00:54:03;;;;;;;8.10;1.90;;;2.80;99.90;;;;;;5041615;28;20084;-66
2023/12/27 00:56:29;;;;;;;14.13;1.55;;;2.70;99.90;;;;;;5042654;28;20083;-67
2023/12/27 00:58:55;;;;;;;9.32;1.38;;;2.70;99.90;;;;;;5042941;28;20593;-66
2023/12/27 01:01:21;;;;;;;8.43;1.67;;;2.70;99.90;;;;;;5036520;28;20155;-66
2023/12/27 01:03:47;;;;;;;8.20;1.25;;;2.70;99.90;;;;;;5027056;28;20037;-67
2023/12/27 01:06:13;;;;;;;10.82;1.80;;;2.70;99.90;;;;;;5040757;28;20052;-66
2023/12/27 01:08:38;;;;;;;8.43;1.50;;;2.70;99.90;;;;;;5033955;28;20483;-66
2023/12/27 01:11:04;;;;;;;13.23;3.30;;;2.80;99.90;;;;;;5040363;28;20125;-66
2023/12/27 01:13:31;;;;;;;13.85;1.63;;;2.70;99.90;;;;;;5038715;28;20048;-66
2023/12/27 01:15:59;;;;;;;11.38;2.05;;;2.80;99.90;;;;;;5026634;28;20083;-66
2023/12/27 01:18:25;;;;;;;12.10;1.98;;;2.80;99.90;;;;;;5044523;28;20071;-66
2023/12/27 01:20:51;;;;;;;13.15;1.60;;;2.70;99.90;;;;;;5020742;28;20856;-66
2023/12/27 01:23:17;;;;;;;8.52;1.42;;;2.80;99.90;;;;;;5028744;28;20060;-66
2023/12/27 01:25:42;;;;;;;13.57;2.30;;;2.80;99.90;;;;;;5038122;28;20475;-66
2023/12/27 01:28:08;;;;;;;9.65;2.38;;;2.70;99.90;;;;;;5039672;28;20641;-66
2023/12/27 01:30:34;;;;;;;10.38;1.67;;;2.70;99.90;;;;;;5032538;28;20045;-66
2023/12/27 01:33:01;;;;;;;7.35;1.50;;;2.70;99.90;;;;;;5031833;28;20051;-66
2023/12/27 01:35:27;;;;;;;7.28;1.55;;;2.70;99.90;;;;;;5044125;28;20231;-66
2023/12/27 01:37:52;;;;;;;19.08;1.80;;;2.70;99.90;;;;;;5019476;28;20134;-66
2023/12/27 01:40:18;;;;;;;10.63;2.28;;;2.60;99.90;;;;;;5029899;28;20177;-66
2023/12/27 01:42:44;;;;;;;9.32;1.98;;;2.60;99.90;;;;;;5034486;28;20124;-66
2023/12/27 01:45:10;;;;;;;13.93;2.88;;;2.50;99.90;;;;;;5027125;28;20075;-66
2023/12/27 01:47:37;;;;;;;12.90;2.15;;;2.60;99.90;;;;;;5010816;28;20051;-66
2023/12/27 01:50:10;;;;;;;9.23;1.38;;;2.60;99.90;;;;;;5036194;28;20130;-66
2023/12/27 01:52:37;;;;;;;6.15;1.38;;;2.60;99.90;;;;;;5036503;28;20982;-66
2023/12/27 01:55:03;;;;;;;16.10;2.47;;;2.50;99.90;;;;;;5039501;28;20080;-66
2023/12/27 01:57:29;;;;;;;10.50;2.15;;;2.60;99.90;;;;;;5046568;28;20047;-66
2023/12/27 01:59:55;;;;;;;10.63;0.95;;;2.60;99.90;;;;;;5024832;28;20071;-66
2023/12/27 02:02:22;;;;;;;15.55;1.92;;;2.60;99.90;;;;;;5037579;28;20132;-66
2023/12/27 02:04:48;;;;;;;6.93;1.40;;;2.60;99.90;;;;;;5010690;28;20512;-66
2023/12/27 02:07:14;;;;;;;10.45;1.60;;;2.60;99.90;;;;;;5042036;28;20041;-66
2023/12/27 02:09:41;;;;;;;11.70;1.48;;;2.60;99.90;;;;;;5022727;28;20056;-66
2023/12/27 02:12:07;;;;;;;8.95;1.58;;;2.60;99.90;;;;;;5029678;28;20567;-66
2023/12/27 02:14:32;;;;;;;14.32;1.50;;;2.60;99.90;;;;;;5035469;28;20041;-66
2023/12/27 02:17:00;;;;;;;6.78;1.42;;;2.60;99.90;;;;;;5030649;28;20045;-66
2023/12/27 02:19:27;;;;;;;19.50;1.38;;;2.60;99.90;;;;;;5019728;28;20554;-66
2023/12/27 02:21:54;;;;;;;12.60;2.78;;;2.60;99.90;;;;;;5039134;28;20087;-66
2023/12/27 02:24:21;;;;;;;11.15;1.50;;;2.60;99.90;;;;;;5038846;28;20056;-66
2023/12/27 02:26:47;;;;;;;6.05;1.42;;;2.60;99.90;;;;;;5019993;28;20403;-66
2023/12/27 02:29:14;;;;;;;17.65;1.75;;;2.60;99.90;;;;;;5033606;28;20430;-66
2023/12/27 02:31:41;;;;;;;15.35;1.83;;;2.50;99.90;;;;;;5039104;28;20389;-66
2023/12/27 02:34:07;;;;;;;10.98;2.13;;;2.50;99.90;;;;;;5021501;28;20051;-66
2023/12/27 02:36:32;;;;;;;10.65;2.00;;;2.60;99.90;;;;;;5036982;28;20045;-66
2023/12/27 02:38:58;;;;;;;18.73;2.00;;;2.60;99.90;;;;;;5042512;28;20059;-66
2023/12/27 02:41:24;;;;;;;7.28;1.40;;;2.50;99.90;;;;;;5041336;28;20055;-66
2023/12/27 02:43:50;;;;;;;18.02;2.83;;;2.50;99.90;;;;;;5026196;28;20120;-66
2023/12/27 02:46:15;;;;;;;11.27;1.63;;;2.50;99.90;;;;;;5022425;28;20037;-66
2023/12/27 02:48:41;;;;;;;11.30;1.70;;;2.40;99.90;;;;;;5024978;28;20121;-66
2023/12/27 02:51:07;;;;;;;9.40;1.92;;;2.40;99.90;;;;;;5031972;28;20383;-66
2023/12/27 02:53:32;;;;;;;7.50;1.80;;;2.40;99.90;;;;;;5026107;28;20201;-66
2023/12/27 02:55:58;;;;;;;11.65;1.80;;;2.40;99.90;;;;;;5024955;28;20052;-66
2023/12/27 02:58:24;;;;;;;10.30;1.77;;;2.40;99.90;;;;;;5037910;28;20181;-66
2023/12/27 03:00:50;;;;;;;11.57;1.77;;;2.30;99.90;;;;;;5026464;28;20084;-66
2023/12/27 03:03:15;;;;;;;22.25;2.33;;;2.30;99.90;;;;;;5032672;28;20064;-66
2023/12/27 03:05:41;;;;;;;7.18;1.77;;;2.30;99.90;;;;;;5040661;28;20127;-66
2023/12/27 03:08:07;;;;;;;13.65;2.25;;;2.20;99.90;;;;;;5030864;28;20045;-66
2023/12/27 03:10:33;;;;;;;5.93;1.60;;;2.20;99.90;;;;;;5026274;28;20057;-66
2023/12/27 03:12:58;;;;;;;12.93;1.92;;;2.20;99.90;;;;;;5041579;28;20044;-66
2023/12/27 03:15:24;;;;;;;13.40;1.63;;;2.20;99.90;;;;;;5043294;28;20175;-66
2023/12/27 03:17:50;;;;;;;10.25;1.77;;;2.10;99.90;;;;;;5044329;28;20040;-66
2023/12/27 03:20:15;;;;;;;6.38;1.45;;;2.20;99.90;;;;;;5041534;28;20495;-66
2023/12/27 03:22:41;;;;;;;9.60;1.75;;;2.10;99.90;;;;;;5045660;28;20089;-67
2023/12/27 03:25:07;;;;;;;9.70;1.67;;;2.00;99.90;;;;;;5035192;28;20538;-66
2023/12/27 03:27:33;;;;;;;8.60;1.75;;;2.00;99.90;;;;;;5047051;28;20048;-66
2023/12/27 03:30:00;;;;;;;13.07;1.48;;;2.00;99.90;;;;;;5028124;28;20037;-66
2023/12/27 03:32:26;;;;;;;10.80;1.42;;;1.90;99.90;;;;;;5046726;28;20123;-66
2023/12/27 03:34:51;;;;;;;9.48;1.88;;;1.90;99.90;;;;;;5042739;28;20143;-66
2023/12/27 03:37:17;;;;;;;7.47;1.20;;;1.80;99.90;;;;;;5026386;28;20536;-66
2023/12/27 03:39:43;;;;;;;16.45;2.08;;;1.70;99.90;;;;;;5028371;28;20055;-66
2023/12/27 03:42:10;;;;;;;15.70;1.30;;;1.70;99.90;;;;;;5067045;28;20052;-66
2023/12/27 03:44:35;;;;;;;6.38;1.02;;;1.70;99.90;;;;;;5060558;28;20055;-66
2023/12/27 03:47:01;;;;;;;8.65;1.45;;;1.70;99.90;;;;;;5053072;28;20040;-66
2023/12/27 03:49:27;;;;;;;5.72;1.40;;;1.70;99.90;;;;;;5048033;28;20136;-66
2023/12/27 03:51:52;;;;;;;4.88;1.73;;;1.60;99.90;;;;;;5053013;28;20056;-66
2023/12/27 03:54:18;;;;;;;7.13;1.40;;;1.60;99.90;;;;;;5060324;28;20297;-67
2023/12/27 03:56:45;;;;;;;10.18;1.25;;;1.60;99.90;;;;;;5030749;28;20147;-66
2023/12/27 03:59:11;;;;;;;5.43;1.35;;;1.60;99.90;;;;;;5052714;28;20048;-67
2023/12/27 04:01:37;;;;;;;8.70;1.25;;;1.60;99.90;;;;;;5066268;28;20583;-66
2023/12/27 04:04:03;;;;;;;11.07;1.30;;;1.60;99.90;;;;;;5038942;28;20044;-66
2023/12/27 04:06:28;;;;;;;5.13;1.13;;;1.60;99.90;;;;;;5053879;28;20543;-66
2023/12/27 04:08:54;;;;;;;7.32;1.45;;;1.50;99.90;;;;;;5047580;28;20222;-66
2023/12/27 04:11:20;;;;;;;5.72;1.30;;;1.60;99.90;;;;;;5039463;28;20055;-66
2023/12/27 04:13:45;;;;;;;6.63;1.95;;;1.60;99.90;;;;;;5030542;28;20047;-66
2023/12/27 04:16:11;;;;;;;6.07;1.42;;;1.50;99.90;;;;;;5026947;28;20037;-66
2023/12/27 04:18:37;;;;;;;7.65;1.58;;;1.50;99.90;;;;;;5019329;28;20458;-66
2023/12/27 04:21:03;;;;;;;11.40;1.52;;;1.50;99.90;;;;;;5042464;28;20704;-67
2023/12/27 04:23:28;;;;;;;11.70;1.55;;;1.50;99.90;;;;;;5029130;28;20051;-66
2023/12/27 04:25:55;;;;;;;8.07;1.52;;;1.50;99.90;;;;;;5042316;28;20052;-66
2023/12/27 04:28:21;;;;;;;13.93;1.73;;;1.50;99.90;;;;;;5041324;28;21355;-66
2023/12/27 04:30:48;;;;;;;11.73;1.33;;;1.50;99.90;;;;;;5039173;28;20044;-66
2023/12/27 04:33:14;;;;;;;11.85;1.90;;;1.50;99.90;;;;;;5049927;28;20051;-66
2023/12/27 04:35:40;;;;;;;8.35;1.60;;;1.60;99.90;;;;;;5020827;28;20122;-66
2023/12/27 04:38:06;;;;;;;10.30;1.73;;;1.70;99.90;;;;;;5038679;28;20086;-66
2023/12/27 04:40:32;;;;;;;11.98;1.52;;;1.60;99.90;;;;;;5044197;28;20036;-66
2023/12/27 04:42:59;;;;;;;6.25;1.60;;;1.50;99.90;;;;;;5023822;28;20041;-66
2023/12/27 04:45:25;;;;;;;19.27;1.85;;;1.60;99.90;;;;;;5022050;28;20057;-66
2023/12/27 04:47:51;;;;;;;7.78;1.65;;;1.60;99.90;;;;;;5016105;28;20096;-66
2023/12/27 04:50:17;;;;;;;11.45;1.88;;;1.60;99.90;;;;;;5030525;28;20056;-66
2023/12/27 04:52:43;;;;;;;11.20;1.50;;;1.60;99.90;;;;;;5015779;28;20055;-66
2023/12/27 04:55:09;;;;;;;10.30;1.75;;;1.60;99.90;;;;;;5036245;28;20049;-66
2023/12/27 04:57:34;;;;;;;8.75;1.77;;;1.60;99.90;;;;;;5035687;28;20106;-66
2023/12/27 05:00:00;;;;;;;8.70;1.23;;;1.60;99.90;;;;;;5039628;28;20074;-66
2023/12/27 05:02:26;;;;;;;13.70;1.15;;;1.60;99.90;;;;;;5024102;28;20052;-66
2023/12/27 05:04:51;;;;;;;8.52;1.70;;;1.60;99.90;;;;;;5016834;28;20279;-66
2023/12/27 05:07:17;;;;;;;11.02;1.55;;;1.60;99.90;;;;;;5032415;28;20132;-66
2023/12/27 05:09:43;;;;;;;4.00;1.30;;;1.60;99.90;;;;;;5041007;28;20051;-66
2023/12/27 05:12:09;;;;;;;11.15;1.30;;;1.50;99.90;;;;;;5025382;28;20048;-66
2023/12/27 05:14:34;;;;;;;6.07;1.30;;;1.60;99.90;;;;;;5031915;28;20044;-66
2023/12/27 05:17:00;;;;;;;14.57;1.58;;;1.60;99.90;;;;;;5036185;28;20076;-66
2023/12/27 05:19:26;;;;;;;7.38;1.60;;;1.60;99.90;;;;;;5028570;28;20041;-66
2023/12/27 05:21:52;;;;;;;6.88;1.40;;;1.60;99.90;;;;;;5009277;28;20418;-66
2023/12/27 05:24:17;;;;;;;9.50;1.85;;;1.60;99.90;;;;;;5035815;28;20059;-66
2023/12/27 05:26:43;;;;;;;9.43;1.52;;;1.60;99.90;;;;;;5032868;28;20048;-66
2023/12/27 05:29:10;;;;;;;14.43;1.80;;;1.60;99.90;;;;;;5030449;28;20041;-66
2023/12/27 05:31:36;;;;;;;10.40;2.22;;;1.70;99.90;;;;;;5036791;28;20083;-66
2023/12/27 05:34:01;;;;;;;9.88;1.67;;;1.70;99.90;;;;;;5054041;28;20122;-66
2023/12/27 05:36:27;;;;;;;11.23;1.67;;;1.70;99.90;;;;;;5034394;28;20479;-66
2023/12/27 05:38:53;;;;;;;9.20;1.60;;;1.70;99.90;;;;;;5020080;28;20052;-66
2023/12/27 05:41:24;;;;;;;8.30;1.60;;;1.80;99.90;;;;;;5021243;28;20143;-66
2023/12/27 05:43:50;;;;;;;10.00;1.98;;;1.80;99.90;;;;;;5034509;28;20210;-66
2023/12/27 05:46:15;;;;;;;6.32;1.70;;;1.80;99.90;;;;;;5015666;28;20076;-66
2023/12/27 05:48:41;;;;;;;7.93;1.55;;;1.80;99.90;;;;;;5022311;28;20056;-66
2023/12/27 05:51:07;;;;;;;13.00;1.85;;;1.80;99.90;;;;;;5020047;28;20174;-66
2023/12/27 05:53:33;;;;;;;14.80;1.65;;;1.80;99.90;;;;;;5032439;28;20068;-66
2023/12/27 05:55:58;;;;;;;15.15;2.20;;;1.90;99.90;;;;;;5038823;28;20533;-66
2023/12/27 05:58:24;;;;;;;6.35;1.17;;;1.80;99.90;;;;;;5043177;28;20507;-66
2023/12/27 06:00:49;;;;;;;20.48;1.95;;;1.80;99.90;;;;;;5024566;28;20051;-66
2023/12/27 06:03:15;;;;;;;8.65;1.55;;;1.80;99.90;;;;;;5013941;28;20307;-66
2023/12/27 06:05:41;;;;;;;9.57;1.92;;;1.80;99.90;;;;;;5039902;28;20527;-66
2023/12/27 06:08:07;;;;;;;9.93;1.77;;;1.90;99.90;;;;;;5003354;28;20048;-66
2023/12/27 06:10:33;;;;;;;14.13;1.70;;;1.90;99.90;;;;;;5040024;28;20053;-66
2023/12/27 06:12:58;;;;;;;15.35;1.95;;;1.80;99.90;;;;;;5036420;28;20092;-66
2023/12/27 06:15:24;;;;;;;8.80;1.88;;;1.80;99.90;;;;;;5037581;28;20074;-66
2023/12/27 06:17:50;;;;;;;9.18;1.98;;;1.90;99.90;;;;;;5036733;28;20411;-66
2023/12/27 06:20:15;;;;;;;11.75;1.85;;;1.90;99.90;;;;;;5027170;28;20049;-66
2023/12/27 06:22:42;;;;;;;15.43;2.35;;;1.90;99.90;;;;;;5041817;28;20458;-66
2023/12/27 06:25:08;;;;;;;19.85;2.78;;;1.90;99.90;;;;;;5039509;28;20083;-66
2023/12/27 06:27:34;;;;;;;11.60;1.92;;;1.90;99.90;;;;;;5039591;28;20654;-66
2023/12/27 06:29:59;;;;;;;9.02;2.13;;;1.90;99.90;;;;;;5037067;28;20183;-65
2023/12/27 06:32:25;;;;;;;11.70;2.40;;;1.90;99.90;;;;;;5009062;28;20476;-66
2023/12/27 06:34:51;;;;;;;10.68;2.00;;;2.00;99.90;;;;;;5025392;28;20174;-66
2023/12/27 06:37:17;;;;;;;7.07;2.03;;;1.90;99.90;;;;;;5037864;28;20060;-66
2023/12/27 06:39:42;;;;;;;15.15;2.13;;;2.00;99.90;;;;;;5032484;28;20449;-66
2023/12/27 06:42:08;;;;;;;4.85;1.70;;;2.00;99.90;;;;;;5040468;28;20059;-66
2023/12/27 06:44:34;;;;;;;14.45;2.50;;;2.00;99.90;;;;;;5012669;28;20045;-66
2023/12/27 06:47:00;;;;;;;11.88;3.00;;;1.90;99.90;;;;;;5042846;28;20388;-66
2023/12/27 06:49:26;;;;;;;5.72;2.28;;;2.00;99.90;;;;;;5031451;28;20087;-66
2023/12/27 06:51:51;;;;;;;15.73;2.72;;;1.90;99.90;;;;;;5018895;28;20060;-66
2023/12/27 06:54:17;;;;;;;12.27;2.55;;;2.00;99.90;;;;;;5020310;28;20056;-66
2023/12/27 06:56:43;;;;;;;16.38;2.72;;;2.00;99.90;;;;;;5052347;28;20040;-66
2023/12/27 06:59:08;;;;;;;20.40;3.10;;;2.00;99.90;;;;;;5053739;28;20052;-66
2023/12/27 07:01:34;;;;;;;22.30;2.85;;;2.00;99.90;;;;;;5050321;28;20052;-66
2023/12/27 07:04:00;;;;;;;17.92;2.50;;;2.10;99.90;;;;;;5046250;28;20482;-66
2023/12/27 07:06:25;;;;;;;14.52;2.63;;;2.10;99.90;;;;;;5025515;28;20045;-66
2023/12/27 07:08:51;;;;;;;10.65;2.45;;;2.10;99.90;;;;;;5028938;28;20045;-66
2023/12/27 07:11:20;;;;;;;11.45;2.70;;;2.30;99.90;;;;;;5045747;28;20518;-66
2023/12/27 07:13:47;;;;;;;15.27;2.60;;;2.30;99.90;;;;;;5045476;28;20041;-66
2023/12/27 07:16:13;;;;;;;12.88;2.35;;;2.30;99.90;;;;;;5028908;28;20049;-66
2023/12/27 07:18:40;;;;;;;16.58;2.58;;;2.30;99.90;;;;;;5029209;28;20098;-66
2023/12/27 07:21:06;;;;;;;12.75;2.25;;;2.50;99.90;;;;;;5044137;28;20499;-66
2023/12/27 07:23:31;;;;;;;14.05;2.10;;;2.40;99.90;;;;;;5029041;28;20106;-66
2023/12/27 07:25:59;;;;;;;17.48;2.75;;;2.40;99.90;;;;;;5029716;28;20044;-66
2023/12/27 07:28:26;;;;;;;10.68;2.45;;;2.50;99.90;;;;;;5046047;28;20140;-66
2023/12/27 07:30:52;;;;;;;10.93;2.60;;;2.60;99.90;;;;;;5051196;28;20501;-66
2023/12/27 07:33:17;;;;;;;11.85;1.80;;;2.60;99.90;;;;;;5050614;28;20064;-66
2023/12/27 07:35:45;;;;;;;13.38;2.15;;;2.50;99.90;;;;;;5039421;28;20123;-66
2023/12/27 07:38:11;;;;;;;9.15;2.10;;;2.50;99.90;;;;;;5048846;28;20059;-66
2023/12/27 07:40:37;;;;;;;10.68;2.70;;;2.50;99.90;;;;;;5049266;28;20052;-66
2023/12/27 07:43:05;;;;;;;15.68;2.08;;;2.50;99.90;;;;;;5056970;28;20044;-66
2023/12/27 07:45:31;;;;;;;14.35;2.38;;;2.60;99.90;;;;;;5053409;28;20110;-66
2023/12/27 07:47:56;;;;;;;11.70;2.25;;;2.60;99.90;;;;;;5054540;28;20040;-66
2023/12/27 07:50:22;;;;;;;10.55;2.15;;;2.60;99.90;;;;;;5053111;28;20048;-66
2023/12/27 07:52:48;;;;;;;16.88;2.65;;;2.70;99.90;;;;;;5049966;28;20046;-66
2023/12/27 07:55:14;;;;;;;14.85;2.40;;;2.80;99.90;;;;;;5046829;28;20368;-66
2023/12/27 07:57:41;;;;;;;15.93;3.30;;;2.80;99.90;;;;;;5045864;28;20079;-66
2023/12/27 08:00:09;;;;;;;10.98;2.60;;;2.80;99.90;;;;;;5056492;28;20052;-66
2023/12/27 08:02:34;;;;;;;20.17;2.33;;;2.80;99.90;;;;;;5026440;28;20051;-66
2023/12/27 08:05:00;;;;;;;7.40;2.25;;;2.80;99.90;;;;;;5045266;28;20075;-66
2023/12/27 08:07:27;;;;;;;6.97;2.13;;;2.90;99.90;;;;;;5062513;28;20048;-66
2023/12/27 08:09:52;;;;;;;10.52;2.25;;;3.00;99.90;;;;;;5024763;28;20483;-66
2023/12/27 08:12:18;;;;;;;14.00;1.92;;;2.90;99.90;;;;;;5042005;28;20060;-66
2023/12/27 08:14:45;;;;;;;12.50;2.38;;;3.00;99.90;;;;;;5062012;28;20161;-66
2023/12/27 08:17:11;;;;;;;7.57;1.73;;;3.10;99.90;;;;;;5045366;28;20248;-69
2023/12/27 08:19:36;;;;;;;7.18;2.28;;;3.10;99.90;;;;;;5043295;28;20051;-69
2023/12/27 08:22:03;;;;;;;13.30;2.20;;;3.20;99.90;;;;;;5036675;28;20123;-69
2023/12/27 08:24:30;;;;;;;5.07;1.30;;;3.30;99.90;;;;;;5029322;28;20047;-69
2023/12/27 08:26:56;;;;;;;15.32;2.53;;;3.30;99.90;;;;;;5038144;28;20230;-69
2023/12/27 08:29:22;;;;;;;6.63;2.05;;;3.40;99.90;;;;;;5038161;28;20045;-69
2023/12/27 08:31:48;;;;;;;10.45;2.35;;;3.40;99.90;;;;;;5025162;28;20047;-69
2023/12/27 08:34:13;;;;;;;13.32;2.55;;;3.40;99.90;;;;;;5027413;28;20049;-69
2023/12/27 08:36:40;;;;;;;10.88;2.58;;;3.40;99.90;;;;;;5026550;28;20548;-69
2023/12/27 08:39:06;;;;;;;11.73;2.50;;;3.40;99.90;;;;;;5044870;28;20486;-69
2023/12/27 08:41:32;;;;;;;6.20;1.63;;;3.40;99.90;;;;;;5026288;28;20081;-69
2023/12/27 08:43:57;;;;;;;16.02;1.85;;;3.40;99.90;;;;;;5044740;28;20398;-69
2023/12/27 08:46:23;;;;;;;7.45;1.83;;;3.50;99.90;;;;;;5045311;28;20058;-69
2023/12/27 08:48:50;;;;;;;19.15;1.98;;;3.50;99.90;;;;;;5041793;28;20066;-69
2023/12/27 08:51:15;;;;;;;13.68;2.20;;;3.50;99.90;;;;;;5046105;28;20041;-69
2023/12/27 08:53:41;;;;;;;5.25;1.75;;;3.50;99.90;;;;;;5016827;28;20060;-69
2023/12/27 08:56:08;;;;;;;13.40;2.95;;;3.50;99.90;;;;;;5032194;28;20506;-69
2023/12/27 08:58:34;;;;;;;9.95;2.10;;;3.50;99.90;;;;;;5041313;28;20420;-69
2023/12/27 09:01:01;;;;;;;11.50;1.85;;;3.60;99.90;;;;;;5028807;28;20631;-69
2023/12/27 09:03:27;;;;;;;12.27;1.60;;;3.50;99.90;;;;;;5043265;28;20044;-68
2023/12/27 09:05:53;;;;;;;10.82;1.80;;;3.60;99.90;;;;;;5028177;28;20055;-68
2023/12/27 09:08:19;;;;;;;7.72;1.65;;;3.60;99.90;;;;;;5044881;28;20040;-69
2023/12/27 09:10:44;;;;;;;9.07;1.80;;;3.60;99.90;;;;;;5026934;28;20838;-69
2023/12/27 09:13:10;;;;;;;7.50;1.52;;;3.70;99.90;;;;;;5037368;28;20044;-69
2023/12/27 09:15:36;;;;;;;6.97;1.83;;;3.70;99.90;;;;;;5015458;28;20052;-69
2023/12/27 09:18:01;;;;;;;15.30;1.85;;;3.70;99.90;;;;;;5021008;28;20060;-69
2023/12/27 09:20:27;;;;;;;4.78;1.80;;;3.80;99.90;;;;;;5034340;28;20131;-69
2023/12/27 09:22:53;;;;;;;7.72;1.77;;;3.80;99.90;;;;;;5027495;28;20048;-68
2023/12/27 09:25:19;;;;;;;10.73;2.22;;;3.90;99.90;;;;;;5055398;28;20059;-68
2023/12/27 09:27:46;;;;;;;18.55;2.50;;;3.90;99.90;;;;;;5040683;28;20048;-68
2023/12/27 09:30:12;;;;;;;7.32;1.50;;;3.90;99.90;;;;;;5019633;28;20040;-69
2023/12/27 09:32:40;;;;;;;10.05;1.65;;;4.00;99.90;;;;;;5034145;28;20086;-68
2023/12/27 09:35:06;;;;;;;6.25;1.70;;;4.00;99.90;;;;;;5038600;28;20096;-69
2023/12/27 09:37:31;;;;;;;12.52;1.80;;;4.00;99.90;;;;;;5033933;28;20139;-69
2023/12/27 09:39:57;;;;;;;7.45;1.45;;;4.10;99.90;;;;;;5031844;28;20044;-69
2023/12/27 09:42:23;;;;;;;7.53;1.95;;;4.10;99.90;;;;;;5033645;28;20406;-69
2023/12/27 09:44:50;;;;;;;8.77;1.65;;;4.20;99.90;;;;;;5040502;28;20398;-69
2023/12/27 09:47:17;;;;;;;6.00;1.67;;;4.20;99.90;;;;;;5041127;28;20057;-69
2023/12/27 09:49:43;;;;;;;9.60;1.85;;;4.20;99.90;;;;;;5032694;28;20168;-68
2023/12/27 09:52:09;;;;;;;7.05;1.38;;;4.30;99.90;;;;;;5026642;28;20487;-69
2023/12/27 09:54:35;;;;;;;4.93;1.77;;;4.30;99.90;;;;;;5029772;28;20063;-69
2023/12/27 09:57:04;;;;;;;9.05;1.50;;;4.30;99.90;;;;;;5024069;28;20064;-68
2023/12/27 09:59:34;;;;;;;6.82;1.65;;;4.30;99.90;;;;;;5026902;28;20079;-69
2023/12/27 10:02:02;;;;;;;10.43;1.98;;;4.40;99.90;;;;;;5024254;28;20074;-68
2023/12/27 10:04:52;;;;;;;9.40;1.77;;;4.40;99.90;;;;;;5038249;28;20410;-69
2023/12/27 10:07:20;;;;;;;5.57;1.50;;;4.50;99.90;;;;;;5059856;28;20490;-69
2023/12/27 10:09:46;;;;;;;12.50;1.67;;;4.50;99.90;;;;;;5043964;28;20053;-69
2023/12/27 10:12:14;;;;;;;9.70;1.48;;;4.50;99.90;;;;;;5035334;28;20452;-68
2023/12/27 10:14:41;;;;;;;5.10;1.00;;;4.50;99.90;;;;;;5030320;28;20089;-69
2023/12/27 10:17:07;;;;;;;9.95;1.90;;;4.60;99.90;;;;;;5020194;28;20041;-68
2023/12/27 10:19:42;;;;;;;17.77;1.92;;;4.60;99.90;;;;;;5032706;28;20342;-69
2023/12/27 10:22:10;;;;;;;10.13;1.70;;;4.60;99.90;;;;;;5040051;28;20048;-68
2023/12/27 10:24:37;;;;;;;12.85;2.00;;;4.70;99.90;;;;;;5026621;28;20090;-69
2023/12/27 10:27:04;;;;;;;8.13;1.92;;;4.70;99.90;;;;;;5021044;28;20045;-69
2023/12/27 10:29:34;;;;;;;11.25;1.73;;;4.70;99.90;;;;;;5039892;28;20045;-69
2023/12/27 10:32:02;;;;;;;6.00;1.33;;;4.80;99.90;;;;;;5046355;28;20052;-68
2023/12/27 10:34:28;;;;;;;7.85;1.35;;;4.80;99.90;;;;;;5051406;28;20093;-69
2023/12/27 10:36:55;;;;;;;4.40;1.05;;;4.90;99.90;;;;;;5044400;28;20041;-69
2023/12/27 10:39:21;;;;;;;7.10;1.65;;;4.90;99.90;;;;;;5044649;28;20045;-69
2023/12/27 10:41:47;;;;;;;10.77;1.83;;;5.00;99.90;;;;;;5044868;28;20076;-69
2023/12/27 10:44:17;;;;;;;5.20;1.38;;;5.00;99.90;;;;;;5047339;28;20086;-69
2023/12/27 10:46:43;;;;;;;5.33;1.80;;;5.10;99.90;;;;;;5046936;28;20052;-69
2023/12/27 10:49:13;;;;;;;10.07;2.17;;;5.10;99.90;;;;;;5031109;28;20488;-69
2023/12/27 10:51:40;;;;;;;9.27;1.70;;;5.10;99.90;;;;;;5042997;28;20113;-69
2023/12/27 10:54:07;;;;;;;18.33;1.85;;;5.20;99.90;;;;;;5034195;28;20167;-69
2023/12/27 10:56:38;;;;;;;7.40;1.35;;;5.20;99.90;;;;;;5045927;28;20044;-69
2023/12/27 10:59:07;;;;;;;8.55;1.60;;;5.20;99.90;;;;;;5044299;28;20040;-69
2023/12/27 11:01:38;;;;;;;15.80;2.20;;;5.20;99.90;;;;;;5045690;28;20045;-69
2023/12/27 11:04:07;;;;;;;8.63;1.70;;;5.20;99.90;;;;;;5044774;28;20096;-69
2023/12/27 11:06:38;;;;;;;11.67;1.77;;;5.30;99.90;;;;;;5044489;28;20513;-69
2023/12/27 11:09:07;;;;;;;13.85;1.90;;;5.30;99.90;;;;;;5034062;28;20044;-69
2023/12/27 11:11:39;;;;;;;7.38;2.03;;;5.40;99.90;;;;;;5058365;28;20067;-69
2023/12/27 11:14:08;;;;;;;8.13;1.45;;;5.40;99.90;;;;;;5029061;28;20131;-69
2023/12/27 11:16:37;;;;;;;13.20;1.80;;;5.40;99.90;;;;;;5055120;28;20036;-69
2023/12/27 11:19:06;;;;;;;8.60;2.15;;;5.40;99.90;;;;;;5058164;28;20382;-69
2023/12/27 11:21:33;;;;;;;1.77;1.33;;;5.40;99.90;;;;;;5051763;28;20048;-69
2023/12/27 11:23:59;;;;;;;9.30;2.40;;;5.50;99.90;;;;;;5062358;28;20117;-69
2023/12/27 11:26:26;;;;;;;14.55;2.75;;;5.50;99.90;;;;;;5048482;28;20380;-69
2023/12/27 11:28:52;;;;;;;11.88;2.50;;;5.50;99.90;;;;;;5028503;28;20052;-69
2023/12/27 11:31:19;;;;;;;4.78;1.02;;;5.50;99.90;;;;;;5051651;28;20040;-69
2023/12/27 11:33:46;;;;;;;20.58;2.88;;;5.60;99.90;;;;;;5044856;28;20374;-69
2023/12/27 11:36:12;;;;;;;20.27;2.88;;;5.60;99.90;;;;;;5051174;28;20041;-70
2023/12/27 11:38:39;;;;;;;11.57;3.22;;;5.60;99.90;;;;;;5046014;28;20052;-69
2023/12/27 11:41:06;;;;;;;11.55;2.38;;;5.60;99.90;;;;;;5050972;28;20083;-69
2023/12/27 11:43:56;;;;;;;14.60;3.03;;;5.70;99.90;;;;;;5054477;28;20260;-70
2023/12/27 11:46:26;;;;;;;6.35;2.20;;;5.60;99.90;;;;;;5031932;28;20458;-69
2023/12/27 11:48:52;;;;;;;7.72;2.30;;;5.70;99.90;;;;;;5046100;28;20048;-69
2023/12/27 11:51:34;;;;;;;11.90;2.67;;;5.60;99.90;;;;;;5046305;28;20041;-70
2023/12/27 11:54:04;;;;;;;6.05;1.98;;;5.60;99.90;;;;;;5044419;28;20795;-69
2023/12/27 11:56:35;;;;;;;4.30;2.08;;;5.60;99.90;;;;;;5046486;28;20148;-69
2023/12/27 11:59:02;;;;;;;8.48;2.40;;;5.60;99.90;;;;;;5041298;28;20055;-69
2023/12/27 12:01:30;;;;;;;12.02;2.78;;;5.60;99.90;;;;;;5029667;28;20049;-69
2023/12/27 12:04:21;;;;;;;8.70;2.13;;;5.60;99.90;;;;;;5027463;28;20052;-69
2023/12/27 12:07:17;;;;;;;6.65;1.23;;;5.60;99.90;;;;;;5018789;28;20513;-70
2023/12/27 12:09:44;;;;;;;15.77;2.88;;;5.60;99.90;;;;;;5043874;28;20056;-70
2023/12/27 12:12:29;;;;;;;6.95;2.47;;;5.70;99.90;;;;;;5061174;28;20056;-70
2023/12/27 12:14:56;;;;;;;12.15;3.15;;;5.60;99.90;;;;;;5045303;28;20406;-70
2023/12/27 12:17:22;;;;;;;2.05;0.93;;;5.60;99.90;;;;;;5027120;28;20056;-71
2023/12/27 12:19:49;;;;;;;7.47;2.20;;;5.60;99.90;;;;;;5045654;28;20048;-71
2023/12/27 12:22:16;;;;;;;10.02;2.58;;;5.60;99.90;;;;;;5028525;28;20517;-71
2023/12/27 12:24:45;;;;;;;6.43;2.05;;;5.60;99.90;;;;;;5066972;28;20056;-71
2023/12/27 12:27:15;;;;;;;14.20;3.90;;;5.50;99.90;;;;;;5044257;28;20510;-71
2023/12/27 12:29:43;;;;;;;8.10;2.47;;;5.50;99.90;;;;;;5043085;28;20145;-72
2023/12/27 12:32:20;;;;;;;12.43;2.72;;;5.50;99.90;;;;;;5053302;28;20032;-72
2023/12/27 12:34:46;;;;;;;15.77;2.63;;;5.40;99.90;;;;;;5013489;23;20049;-72
2023/12/27 12:37:14;;;;;;;10.98;2.75;;;5.40;99.90;;;;;;5004167;28;20041;-72
2023/12/27 12:39:40;;;;;;;6.50;1.88;;;5.40;99.90;;;;;;5005314;28;20118;-72
2023/12/27 12:42:07;;;;;;;10.07;3.30;;;5.40;99.90;;;;;;5007809;28;20041;-72
2023/12/27 12:44:40;;;;;;;9.70;2.97;;;5.40;99.90;;;;;;5012640;28;20638;-72
2023/12/27 12:47:07;;;;;;;16.25;1.63;;;5.40;99.90;;;;;;5053364;23;20291;-73